Time;durP1;ratioP1;P1;durP2;ratioP2;P2;SDS_P1;SDS_P2;PMS_P1;PMS_P2;Temp;Humidity;BMP_temperature;BMP_pressure;BME280_temperature;BME280_humidity;BME280_pressure;Samples;Min_cycle;Max_cycle;Signal;HPM_P1;HPM_P2
2023/12/11 00:00:43;;;;;;;4.97;1.83;;;7.30;99.90;;;;;;5052819;28;20232;-57
2023/12/11 00:03:08;;;;;;;3.50;1.67;;;7.40;99.90;;;;;;5053541;28;20194;-58
2023/12/11 00:05:34;;;;;;;4.90;1.70;;;7.40;99.90;;;;;;5053396;28;20277;-58
2023/12/11 00:07:59;;;;;;;1.73;0.70;;;7.40;99.90;;;;;;5053155;28;20239;-58
2023/12/11 00:10:25;;;;;;;6.30;1.30;;;7.40;99.90;;;;;;5040899;28;20273;-58
2023/12/11 00:12:51;;;;;;;4.30;1.37;;;7.40;99.90;;;;;;5025508;28;20265;-58
2023/12/11 00:15:16;;;;;;;2.70;1.20;;;7.40;99.90;;;;;;5032515;28;20687;-58
2023/12/11 00:17:42;;;;;;;2.10;0.93;;;7.40;99.90;;;;;;5040690;28;20186;-61
2023/12/11 00:20:08;;;;;;;2.23;0.90;;;7.50;99.90;;;;;;5047158;28;20193;-61
2023/12/11 00:22:33;;;;;;;1.13;0.50;;;7.50;99.90;;;;;;5005359;28;20186;-61
2023/12/11 00:24:59;;;;;;;1.83;1.00;;;7.50;99.90;;;;;;5021978;28;20435;-61
2023/12/11 00:27:24;;;;;;;2.70;0.63;;;7.50;99.90;;;;;;5040751;28;20220;-61
2023/12/11 00:29:50;;;;;;;4.63;0.70;;;7.60;99.90;;;;;;5052297;28;20213;-61
2023/12/11 00:32:15;;;;;;;6.93;1.77;;;7.60;99.90;;;;;;5053194;28;20186;-61
2023/12/11 00:34:41;;;;;;;1.30;0.60;;;7.60;99.90;;;;;;5053164;28;20241;-61
2023/12/11 00:37:06;;;;;;;1.33;0.80;;;7.50;99.90;;;;;;5053051;28;20188;-61
2023/12/11 00:39:32;;;;;;;3.23;0.97;;;7.70;99.90;;;;;;5031607;28;20187;-61
2023/12/11 00:41:57;;;;;;;1.47;0.60;;;7.60;99.90;;;;;;5019656;28;20189;-61
2023/12/11 00:44:23;;;;;;;5.20;1.10;;;7.60;99.90;;;;;;5044824;28;20533;-61
2023/12/11 00:46:48;;;;;;;2.03;0.90;;;7.60;99.90;;;;;;5026952;28;20259;-61
2023/12/11 00:49:14;;;;;;;1.00;0.50;;;7.60;99.90;;;;;;5052890;28;20186;-61
2023/12/11 00:51:39;;;;;;;1.13;0.57;;;7.60;99.90;;;;;;5052593;28;20193;-58
2023/12/11 00:54:05;;;;;;;1.60;0.70;;;7.70;99.90;;;;;;5052130;28;20700;-58
2023/12/11 00:56:30;;;;;;;1.30;0.60;;;7.60;99.90;;;;;;5052237;28;20193;-60
2023/12/11 00:58:56;;;;;;;1.27;0.67;;;7.60;99.90;;;;;;5045532;28;20603;-60
2023/12/11 01:01:21;;;;;;;1.30;0.60;;;7.50;99.90;;;;;;5052433;28;20730;-60
2023/12/11 01:03:47;;;;;;;1.63;0.70;;;7.60;99.90;;;;;;5052316;28;20199;-60
2023/12/11 01:06:13;;;;;;;1.50;0.80;;;7.60;99.90;;;;;;5052284;28;20646;-60
2023/12/11 01:08:39;;;;;;;2.30;1.00;;;7.60;99.90;;;;;;5050744;28;20178;-60
2023/12/11 01:11:05;;;;;;;1.63;0.90;;;7.70;99.90;;;;;;5051576;28;20201;-60
2023/12/11 01:13:31;;;;;;;2.07;0.70;;;7.60;99.90;;;;;;5050699;28;20423;-60
2023/12/11 01:15:56;;;;;;;13.97;2.70;;;7.70;99.90;;;;;;5050949;28;20455;-60
2023/12/11 01:18:23;;;;;;;1.50;0.70;;;7.60;99.90;;;;;;5052144;28;20174;-60
2023/12/11 01:20:50;;;;;;;1.67;0.83;;;7.70;99.90;;;;;;5051845;28;20228;-60
2023/12/11 01:23:15;;;;;;;1.60;1.00;;;7.70;99.90;;;;;;5051699;28;20948;-60
2023/12/11 01:25:41;;;;;;;2.03;0.80;;;7.70;99.90;;;;;;5033537;28;20551;-58
2023/12/11 01:28:06;;;;;;;4.13;1.00;;;7.70;99.90;;;;;;5031969;28;20551;-58
2023/12/11 01:30:32;;;;;;;4.40;1.30;;;7.80;99.90;;;;;;5042602;28;20213;-58
2023/12/11 01:32:57;;;;;;;3.07;0.60;;;7.80;99.90;;;;;;5051936;28;20191;-58
2023/12/11 01:35:23;;;;;;;2.43;1.03;;;7.90;99.90;;;;;;5051532;28;20827;-60
2023/12/11 01:37:48;;;;;;;1.07;0.50;;;7.70;99.90;;;;;;5051814;28;20193;-60
2023/12/11 01:40:14;;;;;;;16.57;2.77;;;7.70;99.90;;;;;;5032918;28;20200;-60
2023/12/11 01:42:39;;;;;;;19.70;4.17;;;7.70;99.90;;;;;;5043860;28;20178;-60
2023/12/11 01:45:05;;;;;;;3.30;0.90;;;7.60;99.90;;;;;;5039275;28;20205;-60
2023/12/11 01:47:31;;;;;;;1.30;0.60;;;7.70;99.90;;;;;;5036734;28;20260;-58
2023/12/11 01:49:57;;;;;;;23.73;6.60;;;7.70;99.90;;;;;;5051420;28;20181;-58
2023/12/11 01:52:23;;;;;;;2.30;1.00;;;7.70;99.90;;;;;;5051876;28;20650;-60
2023/12/11 01:54:49;;;;;;;5.33;2.50;;;7.60;99.90;;;;;;5051161;28;20503;-60
2023/12/11 01:57:14;;;;;;;2.17;1.27;;;7.60;99.90;;;;;;5046062;28;20922;-60
2023/12/11 01:59:40;;;;;;;1.40;0.70;;;7.60;99.90;;;;;;5048736;28;20218;-60
2023/12/11 02:02:05;;;;;;;1.30;0.50;;;7.70;99.90;;;;;;5051021;28;20221;-60
2023/12/11 02:04:31;;;;;;;1.27;0.60;;;7.70;99.90;;;;;;5051156;28;20665;-60
2023/12/11 02:06:57;;;;;;;1.57;0.60;;;7.70;99.90;;;;;;5050735;28;20178;-60
2023/12/11 02:09:23;;;;;;;1.17;0.50;;;7.70;99.90;;;;;;5048937;28;20182;-59
2023/12/11 02:11:50;;;;;;;1.23;0.50;;;7.60;99.90;;;;;;5039469;28;20198;-59
2023/12/11 02:14:15;;;;;;;7.07;0.63;;;7.60;99.90;;;;;;5047081;28;20492;-59
2023/12/11 02:16:40;;;;;;;7.23;0.80;;;7.60;99.90;;;;;;5051163;28;20448;-59
2023/12/11 02:19:06;;;;;;;1.20;0.60;;;7.60;99.90;;;;;;5051033;28;20563;-59
2023/12/11 02:21:32;;;;;;;1.40;0.60;;;7.60;99.90;;;;;;5051138;28;20193;-59
2023/12/11 02:24:18;;;;;;;1.00;0.50;;;7.50;99.90;;;;;;5049937;28;20192;-59
2023/12/11 02:26:43;;;;;;;1.00;0.50;;;7.60;99.90;;;;;;5032744;28;20179;-59
2023/12/11 02:29:09;;;;;;;1.10;0.50;;;7.70;99.90;;;;;;5050609;28;20947;-59
2023/12/11 02:31:34;;;;;;;1.73;0.60;;;7.70;99.90;;;;;;5051007;28;20212;-59
2023/12/11 02:34:00;;;;;;;1.20;0.53;;;7.70;99.90;;;;;;5050905;28;20201;-59
2023/12/11 02:36:25;;;;;;;2.23;0.70;;;7.70;99.90;;;;;;5050968;28;20186;-59
2023/12/11 02:38:51;;;;;;;1.00;0.50;;;7.70;99.90;;;;;;5043782;28;20269;-59
2023/12/11 02:41:16;;;;;;;1.57;0.50;;;7.70;99.90;;;;;;5031589;28;20228;-59
2023/12/11 02:43:42;;;;;;;1.00;0.40;;;7.70;99.90;;;;;;5050858;28;20217;-59
2023/12/11 02:46:07;;;;;;;1.00;0.40;;;7.80;99.90;;;;;;5024050;28;20185;-59
2023/12/11 02:48:33;;;;;;;1.00;0.50;;;7.80;99.90;;;;;;5051124;28;20220;-59
2023/12/11 02:50:58;;;;;;;1.43;0.60;;;7.80;99.90;;;;;;5050749;28;20186;-58
2023/12/11 02:53:24;;;;;;;1.00;0.40;;;7.70;99.90;;;;;;5050823;28;20209;-57
2023/12/11 02:55:49;;;;;;;1.23;0.60;;;7.80;99.90;;;;;;5050354;28;20241;-59
2023/12/11 02:58:15;;;;;;;1.00;0.40;;;7.80;99.90;;;;;;5043820;28;20182;-59
2023/12/11 03:00:40;;;;;;;4.23;0.70;;;7.70;99.90;;;;;;5049877;28;20221;-59
2023/12/11 03:03:08;;;;;;;1.10;0.50;;;7.80;99.90;;;;;;5034883;28;20637;-59
2023/12/11 03:05:34;;;;;;;1.10;0.60;;;7.80;99.90;;;;;;5044715;28;20308;-59
2023/12/11 03:08:03;;;;;;;8.00;0.93;;;7.70;99.90;;;;;;5050041;28;20511;-59
2023/12/11 03:10:28;;;;;;;1.10;0.50;;;7.70;99.90;;;;;;5048299;28;20249;-58
2023/12/11 03:12:53;;;;;;;3.53;0.90;;;7.70;99.90;;;;;;5050863;28;20833;-58
2023/12/11 03:15:19;;;;;;;1.40;0.60;;;7.70;99.90;;;;;;5047732;28;20344;-58
2023/12/11 03:17:46;;;;;;;1.20;0.63;;;7.70;99.90;;;;;;5050977;28;20186;-58
2023/12/11 03:20:12;;;;;;;1.10;0.50;;;7.70;99.90;;;;;;5046147;28;20583;-58
2023/12/11 03:22:37;;;;;;;1.73;0.50;;;7.80;99.90;;;;;;5054553;28;20580;-58
2023/12/11 03:25:03;;;;;;;1.07;0.50;;;7.70;99.90;;;;;;5039468;28;20631;-58
2023/12/11 03:27:28;;;;;;;1.00;0.40;;;7.70;99.90;;;;;;5041665;28;20193;-59
2023/12/11 03:29:54;;;;;;;1.00;0.50;;;7.70;99.90;;;;;;5053346;28;20580;-60
2023/12/11 03:32:19;;;;;;;1.00;0.43;;;7.70;99.90;;;;;;5053731;28;20214;-58
2023/12/11 03:34:45;;;;;;;1.70;0.60;;;7.70;99.90;;;;;;5053664;28;20580;-58
2023/12/11 03:37:10;;;;;;;1.00;0.40;;;7.70;99.90;;;;;;5054103;28;20206;-60
2023/12/11 03:39:36;;;;;;;1.67;0.60;;;7.80;99.90;;;;;;5040319;28;20178;-60
2023/12/11 03:42:02;;;;;;;1.10;0.40;;;7.80;99.90;;;;;;5040933;28;20257;-57
2023/12/11 03:44:28;;;;;;;1.93;0.40;;;7.80;99.90;;;;;;5051584;28;20508;-57
2023/12/11 03:46:53;;;;;;;1.10;0.50;;;7.80;99.90;;;;;;5028711;28;20190;-57
2023/12/11 03:49:20;;;;;;;1.10;0.40;;;7.80;99.90;;;;;;5053742;28;20185;-58
2023/12/11 03:51:46;;;;;;;1.10;0.50;;;7.80;99.90;;;;;;5053820;28;20198;-60
2023/12/11 03:54:11;;;;;;;1.10;0.50;;;7.90;99.90;;;;;;5053797;28;20463;-60
2023/12/11 03:56:39;;;;;;;1.20;0.47;;;7.90;99.90;;;;;;5046292;28;20429;-58
2023/12/11 03:59:05;;;;;;;1.17;0.50;;;8.00;99.90;;;;;;5047459;28;20190;-58
2023/12/11 04:01:30;;;;;;;1.10;0.50;;;8.10;99.90;;;;;;5053268;28;20463;-58
2023/12/11 04:03:55;;;;;;;1.00;0.40;;;8.00;99.90;;;;;;5053536;28;20545;-57
2023/12/11 04:06:21;;;;;;;1.10;0.60;;;8.00;99.90;;;;;;5053620;28;20174;-60
2023/12/11 04:08:46;;;;;;;1.00;0.40;;;8.00;99.90;;;;;;5052063;28;20190;-60
2023/12/11 04:11:12;;;;;;;1.00;0.40;;;8.00;99.90;;;;;;5053597;28;20211;-58
2023/12/11 04:13:37;;;;;;;1.00;0.50;;;8.00;99.90;;;;;;5051533;28;20622;-58
2023/12/11 04:16:03;;;;;;;1.70;0.70;;;8.00;99.90;;;;;;5052714;28;20689;-60
2023/12/11 04:18:30;;;;;;;1.00;0.40;;;8.00;99.90;;;;;;5053372;28;20185;-60
2023/12/11 04:20:57;;;;;;;1.20;0.70;;;8.00;99.90;;;;;;5053258;28;20511;-60
2023/12/11 04:23:22;;;;;;;2.03;0.90;;;8.00;99.90;;;;;;5039053;28;20428;-60
2023/12/11 04:25:48;;;;;;;1.30;0.60;;;7.90;99.90;;;;;;5036992;28;20433;-60
2023/12/11 04:28:13;;;;;;;1.00;0.50;;;8.00;99.90;;;;;;5046567;28;20695;-60
2023/12/11 04:30:39;;;;;;;1.20;0.60;;;7.90;99.90;;;;;;5051689;28;20275;-58
2023/12/11 04:33:04;;;;;;;1.10;0.50;;;8.00;99.90;;;;;;5052922;28;20283;-58
2023/12/11 04:35:30;;;;;;;1.57;0.80;;;7.90;99.90;;;;;;5052748;28;20233;-60
2023/12/11 04:37:55;;;;;;;1.40;0.70;;;7.90;99.90;;;;;;5052368;28;20174;-60
2023/12/11 04:40:21;;;;;;;1.00;0.50;;;7.90;99.90;;;;;;5033332;28;20455;-58
2023/12/11 04:42:46;;;;;;;1.10;0.60;;;7.90;99.90;;;;;;5046191;28;20189;-58
2023/12/11 04:45:12;;;;;;;3.00;0.70;;;7.80;99.90;;;;;;5052702;28;20269;-58
2023/12/11 04:47:37;;;;;;;1.00;0.40;;;7.90;99.90;;;;;;5052287;28;20196;-60
2023/12/11 04:50:03;;;;;;;1.00;0.50;;;7.90;99.90;;;;;;5051522;28;20185;-60
2023/12/11 04:52:28;;;;;;;1.00;0.40;;;7.90;99.90;;;;;;5046398;28;20282;-60
2023/12/11 04:54:54;;;;;;;1.13;0.60;;;7.90;99.90;;;;;;5052083;28;20288;-60
2023/12/11 04:57:19;;;;;;;1.30;0.70;;;7.90;99.90;;;;;;5052220;28;20657;-60
2023/12/11 04:59:45;;;;;;;1.30;0.80;;;7.80;99.90;;;;;;5051874;28;20300;-60
2023/12/11 05:02:10;;;;;;;4.37;1.07;;;7.90;99.90;;;;;;5052245;28;20255;-58
2023/12/11 05:04:36;;;;;;;3.13;1.23;;;7.70;99.90;;;;;;5052228;28;20665;-58
2023/12/11 05:07:01;;;;;;;3.13;0.90;;;7.80;99.90;;;;;;5051961;28;20634;-58
2023/12/11 05:09:27;;;;;;;1.20;0.60;;;7.60;99.90;;;;;;5049968;28;20193;-58
2023/12/11 05:11:52;;;;;;;2.90;0.70;;;7.60;99.90;;;;;;5052238;28;20193;-60
2023/12/11 05:14:18;;;;;;;1.40;0.70;;;7.70;99.90;;;;;;5049349;28;20213;-60
2023/12/11 05:16:43;;;;;;;1.10;0.60;;;7.70;99.90;;;;;;5051951;28;20182;-60
2023/12/11 05:19:09;;;;;;;1.40;0.80;;;7.60;99.90;;;;;;5028204;28;20228;-60
2023/12/11 05:21:34;;;;;;;1.13;0.60;;;7.60;99.90;;;;;;5051950;28;20528;-60
2023/12/11 05:24:00;;;;;;;1.23;0.70;;;7.60;99.90;;;;;;5028713;28;20315;-60
2023/12/11 05:26:25;;;;;;;4.27;1.23;;;7.60;99.90;;;;;;5031465;28;20650;-60
2023/12/11 05:28:51;;;;;;;2.53;1.43;;;7.60;99.90;;;;;;5042433;28;20173;-60
2023/12/11 05:31:16;;;;;;;2.90;1.33;;;7.70;99.90;;;;;;5051449;28;20181;-60
2023/12/11 05:33:42;;;;;;;1.40;0.67;;;7.70;99.90;;;;;;5051812;28;20219;-60
2023/12/11 05:36:08;;;;;;;3.10;0.90;;;7.60;99.90;;;;;;5051506;28;20216;-58
2023/12/11 05:38:33;;;;;;;1.30;0.60;;;7.60;99.90;;;;;;5045857;28;20221;-58
2023/12/11 05:40:59;;;;;;;1.10;0.57;;;7.60;99.90;;;;;;5029425;28;20420;-60
2023/12/11 05:43:24;;;;;;;1.80;0.90;;;7.60;99.90;;;;;;5048567;28;20694;-60
2023/12/11 05:45:50;;;;;;;2.17;0.83;;;7.60;99.90;;;;;;5027040;28;20191;-60
2023/12/11 05:48:16;;;;;;;3.40;0.80;;;7.60;99.90;;;;;;5045830;28;20300;-60
2023/12/11 05:50:41;;;;;;;3.63;0.70;;;7.60;99.90;;;;;;5043422;28;20567;-60
2023/12/11 05:53:07;;;;;;;1.23;0.73;;;7.70;99.90;;;;;;5045001;28;20503;-60
2023/12/11 05:55:33;;;;;;;1.37;0.87;;;7.70;99.90;;;;;;5051503;28;20212;-60
2023/12/11 05:57:58;;;;;;;1.10;0.50;;;7.80;99.90;;;;;;5050901;28;20173;-60
2023/12/11 06:00:24;;;;;;;1.43;0.60;;;7.80;99.90;;;;;;5032799;28;20252;-60
2023/12/11 06:02:49;;;;;;;1.73;0.50;;;7.80;99.90;;;;;;5051108;28;20178;-60
2023/12/11 06:05:15;;;;;;;3.97;0.80;;;7.90;99.90;;;;;;5051157;28;20193;-60
2023/12/11 06:07:40;;;;;;;4.90;0.70;;;7.90;99.90;;;;;;5050984;28;20189;-60
2023/12/11 06:10:06;;;;;;;1.67;0.60;;;7.90;99.90;;;;;;5049283;28;20544;-60
2023/12/11 06:12:32;;;;;;;1.17;0.50;;;7.80;99.90;;;;;;5051224;28;20185;-58
2023/12/11 06:14:57;;;;;;;2.07;1.20;;;7.80;99.90;;;;;;5048267;28;20716;-58
2023/12/11 06:17:23;;;;;;;4.07;1.40;;;7.80;99.90;;;;;;5050931;28;20182;-60
2023/12/11 06:19:48;;;;;;;1.93;1.07;;;7.90;99.90;;;;;;5051281;28;20182;-60
2023/12/11 06:22:14;;;;;;;3.17;1.17;;;7.80;99.90;;;;;;5050625;28;20178;-58
2023/12/11 06:24:40;;;;;;;1.30;0.70;;;7.80;99.90;;;;;;5040949;28;20311;-58
2023/12/11 06:27:06;;;;;;;1.50;1.10;;;7.80;99.90;;;;;;5042505;28;20194;-60
2023/12/11 06:29:32;;;;;;;2.20;1.20;;;7.80;99.90;;;;;;5043497;28;20416;-60
2023/12/11 06:31:57;;;;;;;2.07;0.83;;;7.80;99.90;;;;;;5040173;28;20443;-60
2023/12/11 06:34:23;;;;;;;3.20;0.93;;;8.00;99.90;;;;;;5039223;28;20209;-60
2023/12/11 06:36:48;;;;;;;1.63;0.70;;;7.90;99.90;;;;;;5029541;28;20177;-60
2023/12/11 06:39:14;;;;;;;1.73;0.60;;;8.00;99.90;;;;;;5027631;28;20204;-60
2023/12/11 06:41:40;;;;;;;1.50;0.80;;;7.90;99.90;;;;;;5034855;28;20197;-61
2023/12/11 06:44:05;;;;;;;1.60;0.80;;;8.00;99.90;;;;;;5050346;28;20523;-60
2023/12/11 06:46:31;;;;;;;1.83;0.60;;;7.90;99.90;;;;;;5023960;28;20185;-60
2023/12/11 06:48:56;;;;;;;1.40;0.70;;;7.90;99.90;;;;;;5050274;28;20178;-60
2023/12/11 06:51:24;;;;;;;4.27;1.20;;;7.90;99.90;;;;;;5048137;28;20209;-57
2023/12/11 06:53:49;;;;;;;1.83;0.70;;;7.90;99.90;;;;;;5045234;28;20185;-58
2023/12/11 06:56:19;;;;;;;1.10;0.50;;;8.00;99.90;;;;;;5054831;28;20416;-60
2023/12/11 06:58:45;;;;;;;1.63;0.70;;;8.10;99.90;;;;;;5054630;28;20657;-60
2023/12/11 07:01:11;;;;;;;1.40;0.70;;;8.00;99.90;;;;;;5049173;28;20464;-57
2023/12/11 07:03:38;;;;;;;1.23;0.70;;;8.00;99.90;;;;;;5054700;28;20416;-57
2023/12/11 07:06:04;;;;;;;1.00;0.50;;;8.00;99.90;;;;;;5054577;28;20435;-57
2023/12/11 07:08:30;;;;;;;3.50;0.80;;;7.90;99.90;;;;;;5054018;28;20416;-57
2023/12/11 07:10:56;;;;;;;3.40;0.60;;;7.90;99.90;;;;;;5050532;28;20255;-57
2023/12/11 07:13:21;;;;;;;1.60;0.80;;;7.90;99.90;;;;;;5054779;28;20460;-57
2023/12/11 07:15:47;;;;;;;1.10;0.50;;;7.90;99.90;;;;;;5050333;28;21032;-60
2023/12/11 07:18:13;;;;;;;1.27;0.60;;;8.00;99.90;;;;;;5024916;28;20194;-60
2023/12/11 07:20:40;;;;;;;1.40;0.67;;;8.20;99.90;;;;;;5033114;28;20177;-60
2023/12/11 07:23:07;;;;;;;1.43;0.60;;;7.90;99.90;;;;;;5040246;28;20777;-60
2023/12/11 07:25:33;;;;;;;2.13;0.80;;;7.90;99.90;;;;;;5031281;28;20460;-61
2023/12/11 07:27:59;;;;;;;1.20;0.40;;;7.80;99.90;;;;;;5031552;28;21111;-61
2023/12/11 07:30:26;;;;;;;2.60;0.90;;;7.70;99.90;;;;;;5040056;28;20431;-60
2023/12/11 07:32:51;;;;;;;1.37;0.70;;;7.80;99.90;;;;;;5042501;28;20204;-61
2023/12/11 07:35:17;;;;;;;3.30;1.00;;;7.70;99.90;;;;;;5050150;28;20452;-61
2023/12/11 07:37:42;;;;;;;1.97;1.23;;;7.90;99.90;;;;;;5048782;28;20635;-61
2023/12/11 07:40:09;;;;;;;1.20;0.60;;;7.70;99.90;;;;;;5042311;28;20257;-61
2023/12/11 07:42:35;;;;;;;1.90;1.00;;;7.70;99.90;;;;;;5049486;28;20177;-61
2023/12/11 07:45:02;;;;;;;1.10;0.50;;;7.70;99.90;;;;;;5042099;28;20428;-61
2023/12/11 07:47:28;;;;;;;1.47;0.60;;;7.80;99.90;;;;;;5049626;28;20178;-60
2023/12/11 07:49:53;;;;;;;2.07;0.70;;;7.80;99.90;;;;;;5045328;28;20420;-60
2023/12/11 07:52:19;;;;;;;1.30;0.80;;;7.80;99.90;;;;;;5047752;28;20209;-60
2023/12/11 07:54:44;;;;;;;2.27;1.07;;;7.80;99.90;;;;;;5028090;28;20229;-60
2023/12/11 07:57:10;;;;;;;1.40;0.60;;;7.90;99.90;;;;;;5044891;28;20193;-60
2023/12/11 07:59:35;;;;;;;1.10;0.50;;;7.80;99.90;;;;;;5050990;28;20177;-60
2023/12/11 08:02:01;;;;;;;3.93;0.60;;;7.90;99.90;;;;;;5052286;28;20204;-60
2023/12/11 08:04:26;;;;;;;1.80;0.70;;;7.80;99.90;;;;;;5051548;28;20178;-60
2023/12/11 08:06:52;;;;;;;1.10;0.60;;;8.00;99.90;;;;;;5051884;28;20185;-60
2023/12/11 08:09:17;;;;;;;1.13;0.53;;;7.90;99.90;;;;;;5050408;28;20638;-60
2023/12/11 08:11:43;;;;;;;2.60;1.00;;;7.90;99.90;;;;;;5043085;28;20268;-60
2023/12/11 08:14:08;;;;;;;2.50;0.60;;;7.90;99.90;;;;;;5043812;28;20197;-59
2023/12/11 08:16:34;;;;;;;2.77;1.20;;;7.90;99.90;;;;;;5038882;28;20300;-59
2023/12/11 08:18:59;;;;;;;2.03;1.00;;;8.00;99.90;;;;;;5030421;28;20194;-59
2023/12/11 08:21:25;;;;;;;1.80;0.60;;;7.90;99.90;;;;;;5047128;28;20192;-59
2023/12/11 08:23:51;;;;;;;1.50;0.60;;;7.90;99.90;;;;;;5045599;28;20182;-59
2023/12/11 08:26:19;;;;;;;1.10;0.50;;;8.10;99.90;;;;;;5038996;28;20186;-59
2023/12/11 08:28:46;;;;;;;1.00;0.40;;;8.00;99.90;;;;;;5047582;28;20429;-59
2023/12/11 08:31:12;;;;;;;1.60;0.90;;;8.10;99.90;;;;;;5046218;28;20422;-59
2023/12/11 08:33:37;;;;;;;1.13;0.57;;;8.10;99.90;;;;;;5046478;28;20416;-59
2023/12/11 08:36:04;;;;;;;2.40;0.83;;;8.20;99.90;;;;;;5047999;28;20654;-56
2023/12/11 08:38:30;;;;;;;1.10;0.60;;;8.30;99.90;;;;;;5046217;28;20281;-56
2023/12/11 08:40:56;;;;;;;3.53;0.83;;;8.30;99.90;;;;;;5029490;28;20908;-59
2023/12/11 08:43:21;;;;;;;1.20;0.70;;;8.40;99.90;;;;;;5047390;28;20182;-59
2023/12/11 08:45:47;;;;;;;2.13;0.70;;;8.40;99.90;;;;;;5046583;28;20188;-59
2023/12/11 08:48:13;;;;;;;1.13;0.50;;;8.50;99.90;;;;;;5052300;28;20219;-59
2023/12/11 08:50:39;;;;;;;1.60;0.67;;;8.60;99.90;;;;;;5038929;28;20240;-59
2023/12/11 08:53:05;;;;;;;1.20;0.60;;;8.50;99.90;;;;;;5037744;28;20186;-59
2023/12/11 08:55:31;;;;;;;1.40;0.70;;;8.50;99.90;;;;;;5048510;28;20478;-59
2023/12/11 08:57:57;;;;;;;5.40;2.07;;;8.50;99.90;;;;;;5050484;28;20443;-59
2023/12/11 09:00:23;;;;;;;1.50;0.80;;;8.70;99.90;;;;;;5050441;28;20960;-59
2023/12/11 09:02:48;;;;;;;18.30;1.60;;;8.70;99.90;;;;;;5050623;28;20227;-59
2023/12/11 09:05:14;;;;;;;3.30;1.67;;;8.70;99.90;;;;;;5051317;28;20296;-59
2023/12/11 09:07:40;;;;;;;4.10;1.40;;;8.70;99.90;;;;;;5051217;28;20189;-57
2023/12/11 09:10:08;;;;;;;1.97;0.87;;;8.70;99.90;;;;;;5050359;28;20213;-57
2023/12/11 09:12:34;;;;;;;5.60;1.60;;;8.80;99.90;;;;;;5050098;28;20208;-60
2023/12/11 09:14:59;;;;;;;4.20;0.90;;;8.80;99.90;;;;;;5049862;28;20884;-60
2023/12/11 09:17:25;;;;;;;1.87;0.90;;;8.80;99.90;;;;;;5050925;28;20182;-57
2023/12/11 09:19:50;;;;;;;1.50;0.80;;;8.90;99.90;;;;;;5051046;28;20182;-56
2023/12/11 09:22:16;;;;;;;2.63;1.07;;;8.80;99.90;;;;;;5047153;28;20185;-60
2023/12/11 09:24:41;;;;;;;7.03;1.37;;;8.80;99.90;;;;;;5047580;28;20216;-60
2023/12/11 09:27:07;;;;;;;3.83;1.43;;;8.80;99.90;;;;;;5051295;28;20194;-60
2023/12/11 09:29:33;;;;;;;4.83;1.50;;;8.80;99.90;;;;;;5051528;28;20591;-60
2023/12/11 09:31:59;;;;;;;2.10;0.87;;;8.80;99.90;;;;;;5050980;28;20749;-60
2023/12/11 09:34:24;;;;;;;1.37;0.70;;;8.80;99.90;;;;;;5051132;28;20205;-60
2023/12/11 09:36:50;;;;;;;5.33;1.50;;;8.90;99.90;;;;;;5044838;28;20181;-60
2023/12/11 09:39:15;;;;;;;4.87;1.30;;;8.90;99.90;;;;;;5043479;28;20209;-60
2023/12/11 09:41:43;;;;;;;2.93;1.10;;;8.90;99.90;;;;;;5046185;28;20580;-57
2023/12/11 09:44:09;;;;;;;1.63;0.80;;;9.10;99.90;;;;;;5049869;28;20194;-57
2023/12/11 09:46:47;;;;;;;1.33;0.60;;;9.10;99.90;;;;;;5050753;28;20552;-60
2023/12/11 09:49:12;;;;;;;1.40;0.70;;;9.10;99.90;;;;;;5039882;28;20201;-60
2023/12/11 09:51:38;;;;;;;1.40;0.60;;;9.20;99.90;;;;;;5050559;28;20440;-60
2023/12/11 09:54:05;;;;;;;2.73;0.60;;;9.30;99.90;;;;;;5049452;28;20561;-60
2023/12/11 09:56:31;;;;;;;1.37;0.70;;;9.20;99.90;;;;;;5051149;28;20239;-60
2023/12/11 09:58:57;;;;;;;6.50;1.07;;;9.20;99.90;;;;;;5050672;28;20432;-60
2023/12/11 10:01:23;;;;;;;1.47;0.80;;;9.20;99.90;;;;;;5049626;28;20225;-60
2023/12/11 10:03:48;;;;;;;1.20;0.60;;;9.30;99.90;;;;;;5043542;28;20193;-60
2023/12/11 10:06:14;;;;;;;3.20;0.60;;;9.20;99.90;;;;;;5045897;28;20428;-60
2023/12/11 10:08:45;;;;;;;1.93;0.60;;;9.30;99.90;;;;;;5049437;28;20198;-60
2023/12/11 10:11:13;;;;;;;1.50;0.57;;;9.30;99.90;;;;;;5048098;28;20576;-60
2023/12/11 10:13:39;;;;;;;4.13;0.93;;;9.30;99.90;;;;;;5041385;28;20988;-60
2023/12/11 10:16:25;;;;;;;1.40;0.60;;;9.30;99.90;;;;;;5041258;28;20452;-57
2023/12/11 10:18:50;;;;;;;3.97;0.60;;;9.40;99.90;;;;;;5049180;28;20432;-57
2023/12/11 10:21:16;;;;;;;1.70;0.90;;;9.30;99.90;;;;;;5048182;28;20924;-61
2023/12/11 10:23:42;;;;;;;2.23;1.07;;;9.40;99.90;;;;;;5047807;28;20546;-61
2023/12/11 10:26:07;;;;;;;7.33;2.00;;;9.30;99.90;;;;;;5046405;28;20432;-60
2023/12/11 10:28:33;;;;;;;2.13;0.87;;;9.40;99.90;;;;;;5048719;28;20186;-60
2023/12/11 10:31:01;;;;;;;1.40;0.70;;;9.40;99.90;;;;;;5054322;28;20193;-57
2023/12/11 10:33:32;;;;;;;1.30;0.60;;;9.60;99.90;;;;;;5052040;28;20802;-57
2023/12/11 10:36:15;;;;;;;5.90;1.30;;;9.60;99.90;;;;;;5054003;28;20478;-60
2023/12/11 10:38:42;;;;;;;4.57;1.27;;;9.80;99.90;;;;;;5053056;28;20431;-60
2023/12/11 10:41:08;;;;;;;2.33;0.80;;;10.00;99.90;;;;;;5054213;28;21129;-57
2023/12/11 10:43:41;;;;;;;11.13;1.00;;;10.00;99.90;;;;;;5053573;28;20466;-57
2023/12/11 10:46:07;;;;;;;1.10;0.50;;;10.10;99.90;;;;;;5050370;28;20435;-60
2023/12/11 10:48:34;;;;;;;1.20;0.50;;;10.10;99.90;;;;;;5047099;28;20441;-60
2023/12/11 10:51:02;;;;;;;1.40;0.80;;;10.00;99.90;;;;;;5046515;28;20181;-60
2023/12/11 10:53:28;;;;;;;1.20;0.60;;;9.90;99.90;;;;;;5047437;28;20892;-61
2023/12/11 10:55:57;;;;;;;1.50;0.80;;;9.90;99.90;;;;;;5047181;28;20466;-60
2023/12/11 10:58:25;;;;;;;1.70;0.57;;;10.00;99.90;;;;;;5054065;28;20188;-60
2023/12/11 11:00:52;;;;;;;1.87;0.70;;;10.00;99.90;;;;;;5052196;28;20479;-58
2023/12/11 11:03:21;;;;;;;1.30;0.53;;;10.10;99.90;;;;;;5052994;28;20919;-57
2023/12/11 11:05:48;;;;;;;1.73;0.70;;;10.20;99.90;;;;;;5053447;28;20519;-60
2023/12/11 11:08:30;;;;;;;4.17;0.53;;;10.30;99.90;;;;;;5053731;28;20467;-60
2023/12/11 11:11:09;;;;;;;2.53;0.83;;;10.30;99.90;;;;;;5052692;28;21005;-57
2023/12/11 11:13:44;;;;;;;1.70;0.80;;;10.40;99.90;;;;;;5051017;28;20424;-57
2023/12/11 11:16:10;;;;;;;1.70;0.60;;;10.30;99.90;;;;;;5047733;28;20475;-60
2023/12/11 11:19:05;;;;;;;2.03;0.97;;;10.40;99.90;;;;;;5053885;28;20420;-60
2023/12/11 11:21:30;;;;;;;1.30;0.50;;;10.40;99.90;;;;;;5047873;28;20257;-60
2023/12/11 11:23:56;;;;;;;10.93;1.00;;;10.30;99.90;;;;;;5046288;28;20430;-60
2023/12/11 11:26:35;;;;;;;5.07;0.80;;;10.30;99.90;;;;;;5049493;28;20182;-60
2023/12/11 11:29:02;;;;;;;2.30;0.67;;;10.40;99.90;;;;;;5049204;28;20231;-60
2023/12/11 11:31:48;;;;;;;1.10;0.50;;;10.40;99.90;;;;;;5050623;28;20804;-60
2023/12/11 11:34:13;;;;;;;2.27;0.57;;;10.50;99.90;;;;;;5050936;28;20907;-60
2023/12/11 11:36:46;;;;;;;2.40;0.90;;;10.60;99.90;;;;;;5047737;28;20439;-60
2023/12/11 11:39:12;;;;;;;2.17;0.80;;;10.70;99.90;;;;;;5042009;28;20627;-60
2023/12/11 11:41:38;;;;;;;3.47;0.80;;;10.80;99.90;;;;;;5052951;28;20436;-60
2023/12/11 11:44:09;;;;;;;2.20;0.70;;;10.80;99.90;;;;;;5039664;28;20629;-60
2023/12/11 11:46:56;;;;;;;1.10;0.50;;;10.80;99.90;;;;;;5042719;28;20424;-60
2023/12/11 11:49:36;;;;;;;6.10;0.87;;;10.70;99.90;;;;;;5048208;28;20807;-60
2023/12/11 11:52:07;;;;;;;2.47;0.87;;;10.70;99.90;;;;;;5045933;28;20431;-60
2023/12/11 11:54:36;;;;;;;2.40;1.03;;;10.70;99.90;;;;;;5052681;28;20456;-60
2023/12/11 11:57:02;;;;;;;5.43;1.00;;;10.70;99.90;;;;;;5046897;28;20535;-60
2023/12/11 11:59:28;;;;;;;2.77;0.93;;;10.60;99.90;;;;;;5052466;28;20428;-60
2023/12/11 12:01:58;;;;;;;2.40;0.60;;;10.60;99.90;;;;;;5052709;28;20752;-60
2023/12/11 12:04:29;;;;;;;2.70;0.90;;;10.50;99.90;;;;;;5052594;28;20960;-60
2023/12/11 12:07:01;;;;;;;5.33;1.67;;;10.60;99.90;;;;;;5051071;28;20432;-60
2023/12/11 12:09:26;;;;;;;13.83;1.47;;;10.60;99.90;;;;;;5049999;28;21071;-60
2023/12/11 12:11:52;;;;;;;8.50;0.80;;;10.50;99.90;;;;;;5040716;28;20424;-57
2023/12/11 12:14:18;;;;;;;2.70;0.90;;;10.50;99.90;;;;;;5043267;28;20495;-56
2023/12/11 12:16:43;;;;;;;2.17;0.70;;;10.40;99.90;;;;;;5051960;28;20193;-56
2023/12/11 12:19:09;;;;;;;1.10;0.47;;;10.30;99.90;;;;;;5046851;28;20189;-56
2023/12/11 12:21:51;;;;;;;5.17;1.10;;;10.30;99.90;;;;;;5039388;28;20189;-56
2023/12/11 12:24:18;;;;;;;2.33;0.90;;;10.30;99.90;;;;;;5041598;28;20596;-57
2023/12/11 12:26:46;;;;;;;2.40;0.77;;;10.30;99.90;;;;;;5045775;28;20489;-57
2023/12/11 12:29:13;;;;;;;5.13;1.83;;;10.30;99.90;;;;;;5050746;28;20510;-58
2023/12/11 12:31:39;;;;;;;1.37;0.70;;;10.40;99.90;;;;;;5050891;28;20444;-57
2023/12/11 12:34:06;;;;;;;1.87;0.60;;;10.60;99.90;;;;;;5051436;28;20435;-57
2023/12/11 12:36:33;;;;;;;6.43;1.00;;;10.70;99.90;;;;;;5033405;28;20929;-57
2023/12/11 12:38:59;;;;;;;2.70;0.60;;;10.90;99.90;;;;;;5048348;28;20421;-57
2023/12/11 12:41:25;;;;;;;1.60;0.70;;;11.00;99.90;;;;;;5045502;28;21221;-60
2023/12/11 12:43:51;;;;;;;1.83;0.90;;;11.10;99.90;;;;;;5044162;28;20438;-60
2023/12/11 12:46:16;;;;;;;3.93;1.37;;;11.30;99.90;;;;;;5045619;28;21330;-60
2023/12/11 12:48:42;;;;;;;3.47;0.97;;;11.40;99.90;;;;;;5049786;28;20186;-60
2023/12/11 12:51:09;;;;;;;3.47;0.80;;;11.40;99.90;;;;;;5046145;28;20188;-60